sensor_id;sensor_type;location;lat;lon;timestamp;pressure;altitude;pressure_sealevel;temperature;humidity
79481;BME280;68944;48.262;14.208;2023-05-18T00:02:03;98962.34;;;10.11;76.01
79481;BME280;68944;48.262;14.208;2023-05-18T00:04:31;98959.94;;;10.17;76.10
79481;BME280;68944;48.262;14.208;2023-05-18T00:06:59;98959.72;;;10.18;74.81
79481;BME280;68944;48.262;14.208;2023-05-18T00:09:28;98960.53;;;10.12;75.29
79481;BME280;68944;48.262;14.208;2023-05-18T00:11:54;98963.78;;;10.07;75.75
79481;BME280;68944;48.262;14.208;2023-05-18T00:14:21;98959.31;;;10.08;75.95
79481;BME280;68944;48.262;14.208;2023-05-18T00:16:46;98949.31;;;10.03;75.49
79481;BME280;68944;48.262;14.208;2023-05-18T00:19:13;98953.00;;;10.16;75.73
79481;BME280;68944;48.262;14.208;2023-05-18T00:21:45;98938.50;;;9.98;75.72
79481;BME280;68944;48.262;14.208;2023-05-18T00:24:12;98951.97;;;10.03;75.05
79481;BME280;68944;48.262;14.208;2023-05-18T00:26:38;98949.34;;;10.10;75.27
79481;BME280;68944;48.262;14.208;2023-05-18T00:29:04;98956.81;;;9.99;75.47
79481;BME280;68944;48.262;14.208;2023-05-18T00:31:30;98949.94;;;10.05;75.57
79481;BME280;68944;48.262;14.208;2023-05-18T00:34:04;98954.38;;;9.98;75.47
79481;BME280;68944;48.262;14.208;2023-05-18T00:36:30;98956.66;;;10.01;75.83
79481;BME280;68944;48.262;14.208;2023-05-18T00:38:57;98950.34;;;10.09;76.20
79481;BME280;68944;48.262;14.208;2023-05-18T00:41:24;98948.72;;;10.08;76.29
79481;BME280;68944;48.262;14.208;2023-05-18T00:43:53;98948.91;;;10.06;75.87
79481;BME280;68944;48.262;14.208;2023-05-18T00:46:20;98928.31;;;9.95;76.03
79481;BME280;68944;48.262;14.208;2023-05-18T00:48:45;98927.50;;;9.94;76.25
79481;BME280;68944;48.262;14.208;2023-05-18T00:51:11;98937.69;;;10.04;75.83
79481;BME280;68944;48.262;14.208;2023-05-18T00:53:37;98932.81;;;9.94;75.98
79481;BME280;68944;48.262;14.208;2023-05-18T00:56:03;98938.94;;;10.01;75.74
79481;BME280;68944;48.262;14.208;2023-05-18T00:58:29;98940.56;;;10.02;76.41
79481;BME280;68944;48.262;14.208;2023-05-18T01:00:56;98941.38;;;10.03;76.15
79481;BME280;68944;48.262;14.208;2023-05-18T01:03:22;98934.44;;;9.95;76.14
79481;BME280;68944;48.262;14.208;2023-05-18T01:05:48;98935.63;;;9.86;75.75
79481;BME280;68944;48.262;14.208;2023-05-18T01:08:25;98930.31;;;9.86;76.55
79481;BME280;68944;48.262;14.208;2023-05-18T01:11:06;98947.25;;;9.92;76.81
79481;BME280;68944;48.262;14.208;2023-05-18T01:13:53;98938.09;;;9.87;76.24
79481;BME280;68944;48.262;14.208;2023-05-18T01:16:24;98930.53;;;9.77;76.21
79481;BME280;68944;48.262;14.208;2023-05-18T01:18:56;98941.31;;;9.76;76.91
79481;BME280;68944;48.262;14.208;2023-05-18T01:24:40;98944.13;;;9.74;76.24
79481;BME280;68944;48.262;14.208;2023-05-18T01:27:07;98933.94;;;9.64;76.45
79481;BME280;68944;48.262;14.208;2023-05-18T01:29:34;98931.91;;;9.60;77.42
79481;BME280;68944;48.262;14.208;2023-05-18T01:32:00;98937.59;;;9.63;77.00
79481;BME280;68944;48.262;14.208;2023-05-18T01:34:27;98947.56;;;9.61;77.41
79481;BME280;68944;48.262;14.208;2023-05-18T01:36:53;98932.06;;;9.58;76.72
79481;BME280;68944;48.262;14.208;2023-05-18T01:39:19;98946.16;;;9.65;76.71
79481;BME280;68944;48.262;14.208;2023-05-18T01:41:52;98941.69;;;9.73;76.36
79481;BME280;68944;48.262;14.208;2023-05-18T01:44:35;98932.56;;;9.75;77.24
79481;BME280;68944;48.262;14.208;2023-05-18T01:47:09;98938.88;;;9.81;76.26
79481;BME280;68944;48.262;14.208;2023-05-18T01:52:18;98940.91;;;9.86;76.75
79481;BME280;68944;48.262;14.208;2023-05-18T01:54:49;98942.94;;;9.84;76.48
79481;BME280;68944;48.262;14.208;2023-05-18T01:57:18;98951.94;;;9.89;76.03
79481;BME280;68944;48.262;14.208;2023-05-18T01:59:45;98931.16;;;9.86;76.12
79481;BME280;68944;48.262;14.208;2023-05-18T02:02:11;98931.56;;;9.90;76.22
79481;BME280;68944;48.262;14.208;2023-05-18T02:04:37;98924.88;;;9.94;76.47
79481;BME280;68944;48.262;14.208;2023-05-18T02:07:03;98935.88;;;10.05;76.18
79481;BME280;68944;48.262;14.208;2023-05-18T02:09:28;98930.19;;;10.01;76.23
79481;BME280;68944;48.262;14.208;2023-05-18T02:11:54;98933.84;;;10.07;76.15
79481;BME280;68944;48.262;14.208;2023-05-18T02:14:20;98936.91;;;10.10;75.97
79481;BME280;68944;48.262;14.208;2023-05-18T02:16:45;98922.41;;;9.99;75.68
79481;BME280;68944;48.262;14.208;2023-05-18T02:19:14;98940.56;;;10.16;76.02
79481;BME280;68944;48.262;14.208;2023-05-18T02:21:40;98926.31;;;10.04;75.99
79481;BME280;68944;48.262;14.208;2023-05-18T02:24:07;98925.72;;;10.08;76.03
79481;BME280;68944;48.262;14.208;2023-05-18T02:26:33;98937.09;;;10.16;76.34
79481;BME280;68944;48.262;14.208;2023-05-18T02:28:59;98941.00;;;10.13;76.27
79481;BME280;68944;48.262;14.208;2023-05-18T02:31:24;98938.53;;;10.11;76.25
79481;BME280;68944;48.262;14.208;2023-05-18T02:33:51;98912.88;;;10.05;75.46
79481;BME280;68944;48.262;14.208;2023-05-18T02:36:17;98929.59;;;10.19;75.21
79481;BME280;68944;48.262;14.208;2023-05-18T02:38:43;98917.97;;;10.13;75.74
79481;BME280;68944;48.262;14.208;2023-05-18T02:41:10;98940.59;;;10.23;74.78
79481;BME280;68944;48.262;14.208;2023-05-18T02:43:36;98930.81;;;10.23;74.51
79481;BME280;68944;48.262;14.208;2023-05-18T02:46:03;98926.56;;;10.29;74.44
79481;BME280;68944;48.262;14.208;2023-05-18T02:48:29;98915.13;;;10.08;74.44
79481;BME280;68944;48.262;14.208;2023-05-18T02:50:55;98918.56;;;10.09;75.08
79481;BME280;68944;48.262;14.208;2023-05-18T02:53:21;98926.72;;;10.14;74.81
79481;BME280;68944;48.262;14.208;2023-05-18T02:55:47;98924.28;;;10.12;75.47
79481;BME280;68944;48.262;14.208;2023-05-18T02:58:17;98924.09;;;10.21;75.58
79481;BME280;68944;48.262;14.208;2023-05-18T03:00:59;98907.97;;;10.09;74.79
79481;BME280;68944;48.262;14.208;2023-05-18T03:03:28;98917.56;;;10.17;74.62
79481;BME280;68944;48.262;14.208;2023-05-18T03:05:54;98927.16;;;10.24;75.32
79481;BME280;68944;48.262;14.208;2023-05-18T03:08:20;98934.06;;;10.26;75.65
79481;BME280;68944;48.262;14.208;2023-05-18T03:10:48;98911.88;;;10.20;74.26
79481;BME280;68944;48.262;14.208;2023-05-18T03:13:14;98926.34;;;10.24;74.86
79481;BME280;68944;48.262;14.208;2023-05-18T03:15:40;98920.81;;;10.19;75.57
79481;BME280;68944;48.262;14.208;2023-05-18T03:18:06;98939.16;;;10.27;75.48
79481;BME280;68944;48.262;14.208;2023-05-18T03:20:32;98943.84;;;10.25;75.21
79481;BME280;68944;48.262;14.208;2023-05-18T03:22:57;98952.00;;;10.30;75.57
79481;BME280;68944;48.262;14.208;2023-05-18T03:25:23;98954.44;;;10.32;75.22
79481;BME280;68944;48.262;14.208;2023-05-18T03:27:51;98948.75;;;10.35;75.27
79481;BME280;68944;48.262;14.208;2023-05-18T03:30:19;98946.72;;;10.30;74.64
79481;BME280;68944;48.262;14.208;2023-05-18T03:32:48;98958.53;;;10.34;75.55
79481;BME280;68944;48.262;14.208;2023-05-18T03:35:14;98958.94;;;10.31;75.78
79481;BME280;68944;48.262;14.208;2023-05-18T03:37:40;98955.25;;;10.32;75.12
79481;BME280;68944;48.262;14.208;2023-05-18T03:40:11;98958.53;;;10.34;75.39
79481;BME280;68944;48.262;14.208;2023-05-18T03:42:39;98965.84;;;10.32;75.61
79481;BME280;68944;48.262;14.208;2023-05-18T03:45:07;98939.56;;;10.24;76.21
79481;BME280;68944;48.262;14.208;2023-05-18T03:47:32;98946.09;;;10.28;75.18
79481;BME280;68944;48.262;14.208;2023-05-18T03:49:58;98943.06;;;10.31;75.51
79481;BME280;68944;48.262;14.208;2023-05-18T03:52:24;98934.50;;;10.29;74.88
79481;BME280;68944;48.262;14.208;2023-05-18T03:54:50;98955.28;;;10.46;75.53
79481;BME280;68944;48.262;14.208;2023-05-18T03:57:16;98957.75;;;10.47;75.05
79481;BME280;68944;48.262;14.208;2023-05-18T03:59:43;98959.13;;;10.43;75.10
79481;BME280;68944;48.262;14.208;2023-05-18T04:02:10;98964.25;;;10.45;75.76
79481;BME280;68944;48.262;14.208;2023-05-18T04:04:37;98966.69;;;10.46;75.22
79481;BME280;68944;48.262;14.208;2023-05-18T04:07:08;98964.50;;;10.50;76.03
79481;BME280;68944;48.262;14.208;2023-05-18T04:09:34;98949.56;;;10.42;75.66
79481;BME280;68944;48.262;14.208;2023-05-18T04:12:00;98946.09;;;10.35;75.68
79481;BME280;68944;48.262;14.208;2023-05-18T04:14:27;98958.78;;;10.53;75.06
79481;BME280;68944;48.262;14.208;2023-05-18T04:16:53;98949.97;;;10.46;75.54
79481;BME280;68944;48.262;14.208;2023-05-18T04:19:19;98954.50;;;10.52;75.26
79481;BME280;68944;48.262;14.208;2023-05-18T04:21:46;98963.06;;;10.54;75.47
79481;BME280;68944;48.262;14.208;2023-05-18T04:24:13;98949.22;;;10.52;75.20
79481;BME280;68944;48.262;14.208;2023-05-18T04:26:40;98960.59;;;10.60;75.50
79481;BME280;68944;48.262;14.208;2023-05-18T04:29:07;98951.66;;;10.61;75.10
79481;BME280;68944;48.262;14.208;2023-05-18T04:31:35;98964.69;;;10.69;75.42
79481;BME280;68944;48.262;14.208;2023-05-18T04:34:01;98959.81;;;10.73;75.14
79481;BME280;68944;48.262;14.208;2023-05-18T04:36:27;98955.94;;;10.75;75.89
79481;BME280;68944;48.262;14.208;2023-05-18T04:38:56;98964.28;;;10.86;75.50
79481;BME280;68944;48.262;14.208;2023-05-18T04:41:25;98965.47;;;10.97;75.24
79481;BME280;68944;48.262;14.208;2023-05-18T04:43:51;98971.59;;;11.04;74.72
79481;BME280;68944;48.262;14.208;2023-05-18T04:46:18;98953.47;;;11.01;74.85
79481;BME280;68944;48.262;14.208;2023-05-18T04:48:47;98959.75;;;11.13;74.54
79481;BME280;68944;48.262;14.208;2023-05-18T04:51:18;98955.47;;;11.12;74.39
79481;BME280;68944;48.262;14.208;2023-05-18T04:53:49;98971.13;;;11.27;74.57
79481;BME280;68944;48.262;14.208;2023-05-18T04:56:16;98968.28;;;11.29;74.39
79481;BME280;68944;48.262;14.208;2023-05-18T04:58:43;98969.66;;;11.38;74.15
79481;BME280;68944;48.262;14.208;2023-05-18T05:01:11;98973.16;;;11.39;73.97
79481;BME280;68944;48.262;14.208;2023-05-18T05:03:39;98974.97;;;11.45;73.97
79481;BME280;68944;48.262;14.208;2023-05-18T05:06:05;98978.84;;;11.49;73.59
79481;BME280;68944;48.262;14.208;2023-05-18T05:08:31;98975.94;;;11.58;73.76
79481;BME280;68944;48.262;14.208;2023-05-18T05:10:56;98970.41;;;11.66;73.26
79481;BME280;68944;48.262;14.208;2023-05-18T05:13:22;98970.63;;;11.58;73.20
79481;BME280;68944;48.262;14.208;2023-05-18T05:15:47;98971.84;;;11.62;72.93
79481;BME280;68944;48.262;14.208;2023-05-18T05:18:13;98962.06;;;11.56;73.02
79481;BME280;68944;48.262;14.208;2023-05-18T05:20:38;98978.16;;;11.68;72.90
79481;BME280;68944;48.262;14.208;2023-05-18T05:23:04;98989.38;;;11.70;72.66
79481;BME280;68944;48.262;14.208;2023-05-18T05:25:30;98982.25;;;11.70;72.87
79481;BME280;68944;48.262;14.208;2023-05-18T05:27:56;98984.09;;;11.63;72.92
79481;BME280;68944;48.262;14.208;2023-05-18T05:30:22;98990.22;;;11.64;73.40
79481;BME280;68944;48.262;14.208;2023-05-18T05:32:47;98975.97;;;11.51;73.48
79481;BME280;68944;48.262;14.208;2023-05-18T05:35:13;98994.69;;;11.70;73.57
79481;BME280;68944;48.262;14.208;2023-05-18T05:37:39;98993.84;;;11.76;73.47
79481;BME280;68944;48.262;14.208;2023-05-18T05:40:06;98978.72;;;11.77;73.25
79481;BME280;68944;48.262;14.208;2023-05-18T05:42:38;98973.22;;;11.71;73.53
79481;BME280;68944;48.262;14.208;2023-05-18T05:45:07;98979.16;;;11.74;73.55
79481;BME280;68944;48.262;14.208;2023-05-18T05:47:40;98977.28;;;11.81;72.85
79481;BME280;68944;48.262;14.208;2023-05-18T05:50:06;98984.22;;;11.82;72.86
79481;BME280;68944;48.262;14.208;2023-05-18T05:52:33;98989.69;;;11.87;73.15
79481;BME280;68944;48.262;14.208;2023-05-18T05:54:58;98978.66;;;11.90;72.70
79481;BME280;68944;48.262;14.208;2023-05-18T05:57:24;98990.25;;;12.03;72.39
79481;BME280;68944;48.262;14.208;2023-05-18T05:59:50;98987.16;;;12.06;72.98
79481;BME280;68944;48.262;14.208;2023-05-18T06:02:16;98987.75;;;12.08;72.43
79481;BME280;68944;48.262;14.208;2023-05-18T06:04:41;98994.25;;;12.26;71.87
79481;BME280;68944;48.262;14.208;2023-05-18T06:07:08;98985.69;;;12.24;71.50
79481;BME280;68944;48.262;14.208;2023-05-18T06:09:33;98995.81;;;12.34;71.64
79481;BME280;68944;48.262;14.208;2023-05-18T06:11:59;99002.56;;;12.36;71.58
79481;BME280;68944;48.262;14.208;2023-05-18T06:14:26;98977.44;;;12.32;71.66
79481;BME280;68944;48.262;14.208;2023-05-18T06:16:54;98984.31;;;12.47;71.66
79481;BME280;68944;48.262;14.208;2023-05-18T06:19:19;98989.75;;;12.59;70.24
79481;BME280;68944;48.262;14.208;2023-05-18T06:21:45;98975.88;;;12.50;70.68
79481;BME280;68944;48.262;14.208;2023-05-18T06:24:11;99005.94;;;12.50;70.66
79481;BME280;68944;48.262;14.208;2023-05-18T06:26:41;98999.69;;;12.63;70.60
79481;BME280;68944;48.262;14.208;2023-05-18T06:29:45;99007.13;;;12.80;70.58
79481;BME280;68944;48.262;14.208;2023-05-18T06:32:34;99003.78;;;12.92;69.98
79481;BME280;68944;48.262;14.208;2023-05-18T06:35:02;99005.28;;;13.06;69.35
79481;BME280;68944;48.262;14.208;2023-05-18T06:37:28;99007.06;;;13.13;67.95
79481;BME280;68944;48.262;14.208;2023-05-18T06:39:54;98993.00;;;13.05;68.11
79481;BME280;68944;48.262;14.208;2023-05-18T06:42:19;99009.78;;;13.06;68.28
79481;BME280;68944;48.262;14.208;2023-05-18T06:44:50;98996.50;;;13.06;67.83
79481;BME280;68944;48.262;14.208;2023-05-18T06:47:17;99002.78;;;13.12;67.83
79481;BME280;68944;48.262;14.208;2023-05-18T06:49:43;99009.22;;;13.23;68.34
79481;BME280;68944;48.262;14.208;2023-05-18T06:52:09;99011.00;;;13.29;68.15
79481;BME280;68944;48.262;14.208;2023-05-18T06:54:36;98998.22;;;13.19;67.88
79481;BME280;68944;48.262;14.208;2023-05-18T06:57:02;99016.13;;;13.30;68.32
79481;BME280;68944;48.262;14.208;2023-05-18T06:59:29;99004.44;;;13.31;68.09
79481;BME280;68944;48.262;14.208;2023-05-18T07:01:54;99009.84;;;13.43;67.74
79481;BME280;68944;48.262;14.208;2023-05-18T07:04:20;99000.28;;;13.36;67.01
79481;BME280;68944;48.262;14.208;2023-05-18T07:06:46;99006.50;;;13.48;66.72
79481;BME280;68944;48.262;14.208;2023-05-18T07:09:11;99021.59;;;13.54;66.98
79481;BME280;68944;48.262;14.208;2023-05-18T07:11:37;99031.41;;;13.61;66.54
79481;BME280;68944;48.262;14.208;2023-05-18T07:14:07;99016.59;;;13.65;66.46
79481;BME280;68944;48.262;14.208;2023-05-18T07:16:33;99023.53;;;13.85;66.92
79481;BME280;68944;48.262;14.208;2023-05-18T07:18:59;99013.47;;;13.87;66.63
79481;BME280;68944;48.262;14.208;2023-05-18T07:21:26;99025.25;;;14.10;66.10
79481;BME280;68944;48.262;14.208;2023-05-18T07:23:52;99026.00;;;14.17;64.07
79481;BME280;68944;48.262;14.208;2023-05-18T07:26:18;99033.25;;;14.10;64.61
79481;BME280;68944;48.262;14.208;2023-05-18T07:28:49;99014.31;;;14.18;64.66
79481;BME280;68944;48.262;14.208;2023-05-18T07:31:16;99033.78;;;14.31;63.85
79481;BME280;68944;48.262;14.208;2023-05-18T07:33:45;99031.94;;;14.31;63.89
79481;BME280;68944;48.262;14.208;2023-05-18T07:36:12;99024.31;;;14.35;63.24
79481;BME280;68944;48.262;14.208;2023-05-18T07:38:38;99024.22;;;14.42;62.65
79481;BME280;68944;48.262;14.208;2023-05-18T07:41:03;99029.25;;;14.62;61.96
79481;BME280;68944;48.262;14.208;2023-05-18T07:43:29;99019.75;;;14.66;61.35
79481;BME280;68944;48.262;14.208;2023-05-18T07:45:55;98985.22;;;14.72;59.82
79481;BME280;68944;48.262;14.208;2023-05-18T07:48:21;99027.47;;;14.99;59.59
79481;BME280;68944;48.262;14.208;2023-05-18T07:50:46;99021.31;;;14.98;58.93
79481;BME280;68944;48.262;14.208;2023-05-18T07:53:12;99025.25;;;14.96;58.78
79481;BME280;68944;48.262;14.208;2023-05-18T07:55:37;99027.72;;;14.97;59.17
79481;BME280;68944;48.262;14.208;2023-05-18T07:58:03;99033.16;;;15.15;59.31
79481;BME280;68944;48.262;14.208;2023-05-18T08:00:29;99024.56;;;15.12;58.94
79481;BME280;68944;48.262;14.208;2023-05-18T08:02:55;99030.50;;;15.27;58.85
79481;BME280;68944;48.262;14.208;2023-05-18T08:05:20;99039.53;;;15.38;57.77
79481;BME280;68944;48.262;14.208;2023-05-18T08:07:47;99033.34;;;15.61;57.68
79481;BME280;68944;48.262;14.208;2023-05-18T08:10:13;99040.09;;;15.52;56.75
79481;BME280;68944;48.262;14.208;2023-05-18T08:12:38;99030.44;;;15.63;56.85
79481;BME280;68944;48.262;14.208;2023-05-18T08:15:04;99036.47;;;15.70;56.55
79481;BME280;68944;48.262;14.208;2023-05-18T08:17:30;99036.47;;;15.70;56.56
79481;BME280;68944;48.262;14.208;2023-05-18T08:19:56;99020.25;;;15.60;55.98
79481;BME280;68944;48.262;14.208;2023-05-18T08:22:21;99034.41;;;15.60;55.38
79481;BME280;68944;48.262;14.208;2023-05-18T08:24:47;99038.81;;;15.66;55.96
79481;BME280;68944;48.262;14.208;2023-05-18T08:27:12;99031.03;;;15.65;55.94
79481;BME280;68944;48.262;14.208;2023-05-18T08:29:38;99047.25;;;15.75;55.97
79481;BME280;68944;48.262;14.208;2023-05-18T08:32:07;99030.63;;;15.85;55.48
79481;BME280;68944;48.262;14.208;2023-05-18T08:34:33;99048.81;;;16.00;55.45
79481;BME280;68944;48.262;14.208;2023-05-18T08:36:58;99038.97;;;15.89;54.53
79481;BME280;68944;48.262;14.208;2023-05-18T08:39:24;99035.84;;;15.92;54.89
79481;BME280;68944;48.262;14.208;2023-05-18T08:47:21;99054.72;;;16.14;54.30
79481;BME280;68944;48.262;14.208;2023-05-18T08:49:51;99053.03;;;16.25;54.00
79481;BME280;68944;48.262;14.208;2023-05-18T08:52:17;99050.28;;;16.49;53.61
79481;BME280;68944;48.262;14.208;2023-05-18T08:54:43;99049.59;;;16.71;53.69
79481;BME280;68944;48.262;14.208;2023-05-18T08:57:10;99046.16;;;16.76;53.76
79481;BME280;68944;48.262;14.208;2023-05-18T08:59:39;99043.25;;;16.78;53.18
79481;BME280;68944;48.262;14.208;2023-05-18T09:02:06;99035.75;;;16.63;53.76
79481;BME280;68944;48.262;14.208;2023-05-18T09:04:32;99036.91;;;16.49;53.54
79481;BME280;68944;48.262;14.208;2023-05-18T09:07:02;99040.81;;;16.59;53.24
79481;BME280;68944;48.262;14.208;2023-05-18T09:09:29;99043.03;;;16.33;52.89
79481;BME280;68944;48.262;14.208;2023-05-18T09:11:55;99042.03;;;16.22;53.51
79481;BME280;68944;48.262;14.208;2023-05-18T09:14:21;99049.94;;;16.17;53.35
79481;BME280;68944;48.262;14.208;2023-05-18T09:16:53;99036.16;;;16.08;53.91
79481;BME280;68944;48.262;14.208;2023-05-18T09:19:19;99038.69;;;16.02;53.67
79481;BME280;68944;48.262;14.208;2023-05-18T09:21:45;99039.66;;;15.96;53.95
79481;BME280;68944;48.262;14.208;2023-05-18T09:24:11;99039.94;;;15.83;53.19
79481;BME280;68944;48.262;14.208;2023-05-18T09:26:37;99043.44;;;15.71;54.26
79481;BME280;68944;48.262;14.208;2023-05-18T09:29:17;99039.63;;;15.67;53.71
79481;BME280;68944;48.262;14.208;2023-05-18T09:31:44;99038.94;;;15.60;54.09
79481;BME280;68944;48.262;14.208;2023-05-18T09:34:11;99031.38;;;15.56;54.59
79481;BME280;68944;48.262;14.208;2023-05-18T09:36:36;99030.25;;;15.52;54.60
79481;BME280;68944;48.262;14.208;2023-05-18T09:39:06;99044.50;;;15.58;54.93
79481;BME280;68944;48.262;14.208;2023-05-18T09:41:32;99033.34;;;15.61;54.43
79481;BME280;68944;48.262;14.208;2023-05-18T09:43:58;99047.84;;;15.77;55.42
79481;BME280;68944;48.262;14.208;2023-05-18T09:46:30;99043.56;;;15.76;54.06
79481;BME280;68944;48.262;14.208;2023-05-18T09:48:56;99035.78;;;15.63;54.29
79481;BME280;68944;48.262;14.208;2023-05-18T09:51:21;99035.03;;;15.79;53.97
79481;BME280;68944;48.262;14.208;2023-05-18T09:53:57;99045.00;;;15.96;54.32
79481;BME280;68944;48.262;14.208;2023-05-18T09:56:24;99045.00;;;16.08;54.23
79481;BME280;68944;48.262;14.208;2023-05-18T09:58:54;99034.78;;;16.34;53.33
79481;BME280;68944;48.262;14.208;2023-05-18T10:01:19;99037.38;;;16.46;53.24
79481;BME280;68944;48.262;14.208;2023-05-18T10:03:45;99039.97;;;16.41;53.13
79481;BME280;68944;48.262;14.208;2023-05-18T10:06:12;99040.41;;;16.67;52.71
79481;BME280;68944;48.262;14.208;2023-05-18T10:08:38;99039.25;;;16.98;52.10
79481;BME280;68944;48.262;14.208;2023-05-18T10:11:05;99037.00;;;16.89;51.59
79481;BME280;68944;48.262;14.208;2023-05-18T10:13:31;99037.97;;;17.00;51.18
79481;BME280;68944;48.262;14.208;2023-05-18T10:16:02;99030.53;;;16.85;50.56
79481;BME280;68944;48.262;14.208;2023-05-18T10:18:34;99039.81;;;17.00;51.07
79481;BME280;68944;48.262;14.208;2023-05-18T10:21:02;99045.19;;;17.00;51.11
79481;BME280;68944;48.262;14.208;2023-05-18T10:23:32;99041.59;;;17.11;51.83
79481;BME280;68944;48.262;14.208;2023-05-18T10:25:58;99045.47;;;17.15;50.54
79481;BME280;68944;48.262;14.208;2023-05-18T10:28:44;99029.13;;;17.17;50.87
79481;BME280;68944;48.262;14.208;2023-05-18T10:31:15;99036.56;;;17.32;50.15
79481;BME280;68944;48.262;14.208;2023-05-18T10:33:42;99039.25;;;17.32;50.53
79481;BME280;68944;48.262;14.208;2023-05-18T10:36:09;99035.41;;;17.45;50.37
79481;BME280;68944;48.262;14.208;2023-05-18T10:38:36;99036.72;;;17.43;49.70
79481;BME280;68944;48.262;14.208;2023-05-18T10:41:06;99031.44;;;17.48;49.81
79481;BME280;68944;48.262;14.208;2023-05-18T10:43:32;99035.72;;;17.49;49.75
79481;BME280;68944;48.262;14.208;2023-05-18T10:45:59;99031.38;;;17.43;50.41
79481;BME280;68944;48.262;14.208;2023-05-18T10:48:27;99029.72;;;17.42;50.05
79481;BME280;68944;48.262;14.208;2023-05-18T10:50:55;99034.03;;;17.43;49.23
79481;BME280;68944;48.262;14.208;2023-05-18T10:53:24;99035.59;;;17.38;49.15
79481;BME280;68944;48.262;14.208;2023-05-18T10:55:56;99024.97;;;17.09;50.05
79481;BME280;68944;48.262;14.208;2023-05-18T10:58:24;99043.97;;;17.08;50.85
79481;BME280;68944;48.262;14.208;2023-05-18T11:00:56;99046.06;;;16.88;51.02
79481;BME280;68944;48.262;14.208;2023-05-18T11:03:23;99036.34;;;16.82;50.99
79481;BME280;68944;48.262;14.208;2023-05-18T11:06:04;99036.59;;;16.80;51.00
79481;BME280;68944;48.262;14.208;2023-05-18T11:08:31;99035.53;;;16.81;51.41
79481;BME280;68944;48.262;14.208;2023-05-18T11:11:04;99024.91;;;16.87;50.75
79481;BME280;68944;48.262;14.208;2023-05-18T11:13:34;99016.47;;;16.60;50.44
79481;BME280;68944;48.262;14.208;2023-05-18T11:24:12;99039.22;;;16.29;51.99
79481;BME280;68944;48.262;14.208;2023-05-18T11:26:39;99037.78;;;16.38;51.17
79481;BME280;68944;48.262;14.208;2023-05-18T11:29:35;99040.44;;;16.38;51.13
79481;BME280;68944;48.262;14.208;2023-05-18T11:32:02;99034.47;;;16.48;51.36
79481;BME280;68944;48.262;14.208;2023-05-18T11:37:11;99028.31;;;16.47;51.80
79481;BME280;68944;48.262;14.208;2023-05-18T11:39:37;99042.28;;;16.67;51.28
79481;BME280;68944;48.262;14.208;2023-05-18T11:42:10;99046.56;;;16.68;51.58
79481;BME280;68944;48.262;14.208;2023-05-18T11:44:36;99036.78;;;16.74;50.92
79481;BME280;68944;48.262;14.208;2023-05-18T11:47:08;99044.28;;;16.77;51.27
79481;BME280;68944;48.262;14.208;2023-05-18T11:49:47;99038.53;;;16.51;51.60
79481;BME280;68944;48.262;14.208;2023-05-18T11:54:45;99035.13;;;16.72;52.42
79481;BME280;68944;48.262;14.208;2023-05-18T11:57:12;99034.63;;;16.58;52.14
79481;BME280;68944;48.262;14.208;2023-05-18T11:59:41;99044.59;;;16.46;51.59
79481;BME280;68944;48.262;14.208;2023-05-18T12:02:08;99039.16;;;16.58;51.67
79481;BME280;68944;48.262;14.208;2023-05-18T12:04:47;99033.25;;;16.56;51.72
79481;BME280;68944;48.262;14.208;2023-05-18T12:07:16;99033.66;;;16.47;51.86
79481;BME280;68944;48.262;14.208;2023-05-18T12:09:43;99036.69;;;16.22;52.34
79481;BME280;68944;48.262;14.208;2023-05-18T12:12:10;99038.16;;;16.30;51.89
79481;BME280;68944;48.262;14.208;2023-05-18T12:14:40;99038.81;;;16.37;52.67
79481;BME280;68944;48.262;14.208;2023-05-18T12:17:07;99022.88;;;16.42;52.84
79481;BME280;68944;48.262;14.208;2023-05-18T12:19:45;99026.19;;;16.49;52.32
79481;BME280;68944;48.262;14.208;2023-05-18T12:22:11;99040.72;;;16.54;51.58
79481;BME280;68944;48.262;14.208;2023-05-18T12:24:38;99032.69;;;16.54;51.65
79481;BME280;68944;48.262;14.208;2023-05-18T12:27:11;99037.72;;;16.50;52.53
79481;BME280;68944;48.262;14.208;2023-05-18T12:29:41;99033.66;;;16.47;52.17
79481;BME280;68944;48.262;14.208;2023-05-18T12:32:08;99031.22;;;16.46;51.71
79481;BME280;68944;48.262;14.208;2023-05-18T12:34:35;99037.78;;;16.38;52.18
79481;BME280;68944;48.262;14.208;2023-05-18T12:37:01;99030.06;;;16.42;52.98
79481;BME280;68944;48.262;14.208;2023-05-18T12:39:26;99030.00;;;16.36;53.28
79481;BME280;68944;48.262;14.208;2023-05-18T12:41:52;99016.59;;;16.19;53.14
79481;BME280;68944;48.262;14.208;2023-05-18T12:44:18;99031.94;;;16.12;52.40
79481;BME280;68944;48.262;14.208;2023-05-18T12:46:43;99026.41;;;16.01;52.92
79481;BME280;68944;48.262;14.208;2023-05-18T12:49:09;99030.81;;;16.08;53.24
79481;BME280;68944;48.262;14.208;2023-05-18T12:51:36;99038.97;;;15.89;53.64
79481;BME280;68944;48.262;14.208;2023-05-18T12:54:03;99026.56;;;15.83;53.48
79481;BME280;68944;48.262;14.208;2023-05-18T12:56:49;99019.56;;;15.93;53.67
79481;BME280;68944;48.262;14.208;2023-05-18T12:59:17;99029.91;;;15.90;53.18
79481;BME280;68944;48.262;14.208;2023-05-18T13:01:46;99028.88;;;15.79;54.10
79481;BME280;68944;48.262;14.208;2023-05-18T13:04:12;99023.78;;;15.77;53.61
79481;BME280;68944;48.262;14.208;2023-05-18T13:06:38;99037.16;;;15.77;53.89
79481;BME280;68944;48.262;14.208;2023-05-18T13:09:10;99030.28;;;15.81;53.64
79481;BME280;68944;48.262;14.208;2023-05-18T13:11:36;99029.81;;;15.85;53.94
79481;BME280;68944;48.262;14.208;2023-05-18T13:14:03;99023.66;;;15.84;54.83
79481;BME280;68944;48.262;14.208;2023-05-18T13:16:29;99022.94;;;15.89;54.25
79481;BME280;68944;48.262;14.208;2023-05-18T13:19:03;99027.94;;;15.97;53.84